createdAt,value
2022-10-09T00:01:24.236Z,16.83
2022-10-09T00:03:53.261Z,17.50
2022-10-09T00:06:31.723Z,15.57
2022-10-09T00:09:02.595Z,16.17
2022-10-09T00:11:31.749Z,16.52
2022-10-09T00:13:59.647Z,16.38
2022-10-09T00:16:30.140Z,16.58
2022-10-09T00:18:59.741Z,17.15
2022-10-09T00:21:36.905Z,15.63
2022-10-09T00:24:08.684Z,16.17
2022-10-09T00:26:38.296Z,15.70
2022-10-09T00:29:07.889Z,14.93
2022-10-09T00:31:35.334Z,15.43
2022-10-09T00:34:02.636Z,16.55
2022-10-09T00:36:29.915Z,16.60
2022-10-09T00:38:57.398Z,16.27
2022-10-09T00:41:30.640Z,16.35
2022-10-09T00:44:02.307Z,16.38
2022-10-09T00:49:32.191Z,15.30
2022-10-09T00:52:03.225Z,16.08
2022-10-09T00:54:34.097Z,16.33
2022-10-09T00:57:01.805Z,15.65
2022-10-09T00:59:30.079Z,16.50
2022-10-09T01:01:57.512Z,16.17
2022-10-09T01:04:24.879Z,16.98
2022-10-09T01:07:00.892Z,16.27
2022-10-09T01:09:40.019Z,15.65
2022-10-09T01:12:20.038Z,16.95
2022-10-09T01:15:20.767Z,16.30
2022-10-09T01:18:15.258Z,15.20
2022-10-09T01:20:54.759Z,16.88
2022-10-09T01:23:40.163Z,16.08
2022-10-09T01:26:16.376Z,16.13
2022-10-09T01:28:47.569Z,16.67
2022-10-09T01:31:17.774Z,17.33
2022-10-09T01:33:46.691Z,16.33
2022-10-09T01:36:16.369Z,14.85
2022-10-09T01:38:45.303Z,17.55
2022-10-09T01:41:12.713Z,16.92
2022-10-09T01:43:43.479Z,17.17
2022-10-09T01:46:27.265Z,18.25
2022-10-09T01:49:11.382Z,17.20
2022-10-09T01:51:51.893Z,16.77
2022-10-09T01:54:31.696Z,16.50
2022-10-09T01:57:04.009Z,16.85
2022-10-09T01:59:35.885Z,16.45
2022-10-09T02:02:07.685Z,16.65
2022-10-09T02:04:38.758Z,16.83
2022-10-09T02:07:06.379Z,15.73
2022-10-09T02:09:34.708Z,16.60
2022-10-09T02:12:07.990Z,16.67
2022-10-09T02:14:36.527Z,16.25
2022-10-09T02:17:12.158Z,16.38
2022-10-09T02:19:48.257Z,16.77
2022-10-09T02:22:47.112Z,16.60
2022-10-09T02:25:15.593Z,16.50
2022-10-09T02:27:42.976Z,15.90
2022-10-09T02:30:13.701Z,15.43
2022-10-09T02:32:41.104Z,14.63
2022-10-09T02:35:11.349Z,14.82
2022-10-09T02:37:38.597Z,15.63
2022-10-09T02:40:10.865Z,15.45
2022-10-09T02:42:40.605Z,15.50
2022-10-09T02:45:10.883Z,14.98
2022-10-09T02:47:40.279Z,15.88
2022-10-09T02:50:08.324Z,15.45
2022-10-09T02:52:35.654Z,15.52
2022-10-09T02:55:03.033Z,16.15
2022-10-09T02:57:32.776Z,15.50
2022-10-09T03:00:02.759Z,14.88
2022-10-09T03:02:32.390Z,15.45
2022-10-09T03:05:02.084Z,15.93
2022-10-09T03:07:31.530Z,15.85
2022-10-09T03:09:58.888Z,15.60
2022-10-09T03:12:26.269Z,14.43
2022-10-09T03:14:53.517Z,15.18
2022-10-09T03:17:23.104Z,15.55
2022-10-09T03:19:54.972Z,16.52
2022-10-09T03:22:27.162Z,15.68
2022-10-09T03:24:56.891Z,16.02
2022-10-09T03:27:24.153Z,15.52
2022-10-09T03:29:53.911Z,15.70
2022-10-09T03:32:23.623Z,16.58
2022-10-09T03:34:53.224Z,15.73
2022-10-09T03:37:20.470Z,15.50
2022-10-09T03:39:49.993Z,16.48
2022-10-09T03:42:17.313Z,15.80
2022-10-09T03:44:46.949Z,15.88
2022-10-09T03:47:16.666Z,16.02
2022-10-09T03:49:48.875Z,15.75
2022-10-09T03:52:16.135Z,15.90
2022-10-09T03:54:43.489Z,14.70
2022-10-09T03:57:10.821Z,12.75
2022-10-09T03:59:40.234Z,12.43
2022-10-09T04:02:08.350Z,11.48
2022-10-09T04:04:35.633Z,11.38
2022-10-09T04:07:02.924Z,10.57
2022-10-09T04:09:30.197Z,11.50
2022-10-09T04:11:59.979Z,9.43
2022-10-09T04:14:27.237Z,10.20
2022-10-09T04:16:54.685Z,9.80
2022-10-09T04:19:26.835Z,9.45
2022-10-09T04:21:58.653Z,9.57
2022-10-09T04:26:52.962Z,10.07
2022-10-09T04:29:21.440Z,10.57
2022-10-09T04:31:51.185Z,11.10
2022-10-09T04:34:18.638Z,10.68
2022-10-09T04:36:50.913Z,10.05
2022-10-09T04:39:20.546Z,10.80
2022-10-09T04:41:47.823Z,11.10
2022-10-09T04:44:15.165Z,10.98
2022-10-09T04:46:42.453Z,12.73
2022-10-09T04:49:14.078Z,12.52
2022-10-09T04:54:09.630Z,10.35
2022-10-09T04:56:37.148Z,11.32
2022-10-09T04:59:04.772Z,11.70
2022-10-09T05:01:38.030Z,11.07
2022-10-09T05:04:08.141Z,10.70
2022-10-09T05:06:37.673Z,10.13
2022-10-09T05:09:10.057Z,8.95
2022-10-09T05:11:42.313Z,8.93
2022-10-09T05:14:13.428Z,9.07
2022-10-09T05:17:00.899Z,8.47
2022-10-09T05:19:27.983Z,8.80
2022-10-09T05:21:55.583Z,8.25
2022-10-09T05:24:22.835Z,8.90
2022-10-09T05:26:50.185Z,8.73
2022-10-09T05:29:17.558Z,8.98
2022-10-09T05:31:49.608Z,8.27
2022-10-09T05:34:17.352Z,8.95
2022-10-09T05:36:44.629Z,7.50
2022-10-09T05:39:13.194Z,8.18
2022-10-09T05:41:40.562Z,7.97
2022-10-09T05:44:08.890Z,7.47
2022-10-09T05:46:36.264Z,7.68
2022-10-09T05:49:07.940Z,7.30
2022-10-09T05:54:04.730Z,7.38
2022-10-09T05:56:37.091Z,6.82
2022-10-09T05:59:10.205Z,7.15
2022-10-09T06:01:42.708Z,6.28
2022-10-09T06:04:21.101Z,6.43
2022-10-09T06:06:52.337Z,6.43
2022-10-09T06:09:23.262Z,6.03
2022-10-09T06:11:53.887Z,6.78
2022-10-09T06:14:22.275Z,6.00
2022-10-09T06:16:52.670Z,5.53
2022-10-09T06:19:22.990Z,5.65
2022-10-09T06:21:52.488Z,5.65
2022-10-09T06:24:29.753Z,6.25
2022-10-09T06:26:59.922Z,6.20
2022-10-09T06:29:27.420Z,5.93
2022-10-09T06:31:57.065Z,5.65
2022-10-09T06:34:24.963Z,5.50
2022-10-09T06:36:52.258Z,5.43
2022-10-09T06:39:19.629Z,5.40
2022-10-09T06:41:47.001Z,5.38
2022-10-09T06:44:17.165Z,5.07
2022-10-09T06:46:49.205Z,4.82
2022-10-09T06:49:16.499Z,4.50
2022-10-09T06:51:43.786Z,4.32
2022-10-09T06:54:17.492Z,4.00
2022-10-09T06:56:44.987Z,3.85
2022-10-09T06:59:12.454Z,4.07
2022-10-09T07:01:42.064Z,4.45
2022-10-09T07:04:12.050Z,4.60
2022-10-09T07:06:42.218Z,3.90
2022-10-09T07:09:12.459Z,4.00
2022-10-09T07:11:45.201Z,4.13
2022-10-09T07:14:14.244Z,4.30
2022-10-09T07:16:48.714Z,4.28
2022-10-09T07:19:17.843Z,3.70
2022-10-09T07:21:47.573Z,4.30
2022-10-09T07:24:15.315Z,4.32
2022-10-09T07:26:45.281Z,4.07
2022-10-09T07:29:15.049Z,4.13
2022-10-09T07:31:42.506Z,4.03
2022-10-09T07:34:10.144Z,4.30
2022-10-09T07:36:37.589Z,4.30
2022-10-09T07:39:05.623Z,4.45
2022-10-09T07:41:33.117Z,4.18
2022-10-09T07:44:00.469Z,4.18
2022-10-09T07:46:33.298Z,3.97
2022-10-09T07:49:01.773Z,4.10
2022-10-09T07:51:30.228Z,3.70
2022-10-09T07:53:58.244Z,3.05
2022-10-09T07:56:29.192Z,3.00
2022-10-09T07:58:58.956Z,2.72
2022-10-09T08:01:30.751Z,2.70
2022-10-09T08:04:02.607Z,3.00
2022-10-09T08:06:31.007Z,2.95
2022-10-09T08:09:02.155Z,2.92
2022-10-09T08:11:30.174Z,3.00
2022-10-09T08:13:57.843Z,2.65
2022-10-09T08:16:26.946Z,2.60
2022-10-09T08:18:58.925Z,2.85
2022-10-09T08:21:28.359Z,3.08
2022-10-09T08:23:57.546Z,2.92
2022-10-09T08:26:26.264Z,2.90
2022-10-09T08:28:59.249Z,2.88
2022-10-09T08:31:27.727Z,2.70
2022-10-09T08:34:00.153Z,2.78
2022-10-09T08:36:29.243Z,2.50
2022-10-09T08:38:56.585Z,2.42
2022-10-09T08:41:29.676Z,2.25
2022-10-09T08:44:19.974Z,2.25
2022-10-09T08:46:56.703Z,2.30
2022-10-09T08:49:35.389Z,2.13
2022-10-09T08:52:16.947Z,2.38
2022-10-09T08:54:46.728Z,2.10
2022-10-09T08:57:18.321Z,2.45
2022-10-09T09:02:51.113Z,2.60
2022-10-09T09:05:27.725Z,2.17
2022-10-09T09:08:19.964Z,2.17
2022-10-09T09:10:57.684Z,2.13
2022-10-09T09:13:24.993Z,1.88
2022-10-09T09:16:18.604Z,2.08
2022-10-09T09:18:52.653Z,2.17
2022-10-09T09:21:48.464Z,1.88
2022-10-09T09:24:19.505Z,2.50
2022-10-09T09:26:53.598Z,1.80
2022-10-09T09:29:24.633Z,2.53
2022-10-09T09:32:05.130Z,2.47
2022-10-09T09:34:39.072Z,2.33
2022-10-09T09:37:06.412Z,1.88
2022-10-09T09:42:30.344Z,2.00
2022-10-09T09:45:07.021Z,2.22
2022-10-09T09:47:40.471Z,1.88
2022-10-09T09:50:28.437Z,2.42
2022-10-09T09:53:03.206Z,2.40
2022-10-09T09:55:34.617Z,1.80
2022-10-09T10:00:34.074Z,1.60
2022-10-09T10:03:08.786Z,1.40
2022-10-09T10:05:37.879Z,1.40
2022-10-09T10:08:23.175Z,1.10
2022-10-09T10:10:53.590Z,1.35
2022-10-09T10:13:32.841Z,1.60
2022-10-09T10:16:03.175Z,1.27
2022-10-09T10:18:37.626Z,1.35
2022-10-09T10:21:08.828Z,1.40
2022-10-09T10:23:44.186Z,1.20
2022-10-09T10:26:34.659Z,1.55
2022-10-09T10:29:18.071Z,1.33
2022-10-09T10:31:52.470Z,1.35
2022-10-09T10:34:37.849Z,1.10
2022-10-09T10:37:25.369Z,1.10
2022-10-09T10:39:56.944Z,1.30
2022-10-09T10:43:01.281Z,1.05
2022-10-09T10:45:37.387Z,0.77
2022-10-09T10:48:09.339Z,1.10
2022-10-09T10:50:40.762Z,1.38
2022-10-09T10:56:02.647Z,0.90
2022-10-09T10:58:37.397Z,0.93
2022-10-09T11:01:42.412Z,1.00
2022-10-09T11:04:47.494Z,1.10
2022-10-09T11:07:37.274Z,1.17
2022-10-09T11:10:22.554Z,1.02
2022-10-09T11:13:14.167Z,0.90
2022-10-09T11:18:42.625Z,1.23
2022-10-09T11:21:46.771Z,1.00
2022-10-09T11:24:43.281Z,1.17
2022-10-09T11:27:25.458Z,4.93
2022-10-09T11:29:58.674Z,1.40
2022-10-09T11:32:29.109Z,1.02
2022-10-09T11:35:12.740Z,0.97
2022-10-09T11:37:43.521Z,1.30
2022-10-09T11:40:36.522Z,0.90
2022-10-09T11:43:16.250Z,0.90
2022-10-09T11:45:49.586Z,1.00
2022-10-09T11:48:25.827Z,1.00
2022-10-09T11:50:53.089Z,1.00
2022-10-09T11:53:26.782Z,1.00
2022-10-09T11:56:21.888Z,0.93
2022-10-09T11:59:02.341Z,0.95
2022-10-09T12:01:34.998Z,0.70
2022-10-09T12:04:08.691Z,1.08
2022-10-09T12:07:00.681Z,0.93
2022-10-09T12:09:39.993Z,0.80
2022-10-09T12:12:16.326Z,0.70
2022-10-09T12:14:48.469Z,0.60
2022-10-09T12:17:38.486Z,0.80
2022-10-09T12:20:19.107Z,0.60
2022-10-09T12:23:13.843Z,0.80
2022-10-09T12:25:44.267Z,0.60
2022-10-09T12:28:36.408Z,0.50
2022-10-09T12:31:08.908Z,0.77
2022-10-09T12:33:41.793Z,0.90
2022-10-09T12:36:38.694Z,0.90
2022-10-09T12:39:33.987Z,0.77
2022-10-09T12:42:02.169Z,0.50
2022-10-09T12:44:34.034Z,0.80
2022-10-09T12:47:13.914Z,0.50
2022-10-09T12:49:41.343Z,0.50
2022-10-09T12:52:16.395Z,0.70
2022-10-09T12:54:45.040Z,0.60
2022-10-09T12:57:17.787Z,0.52
2022-10-09T12:59:47.063Z,0.60
2022-10-09T13:02:21.127Z,1.00
2022-10-09T13:05:03.412Z,0.70
2022-10-09T13:07:32.645Z,0.90
2022-10-09T13:10:04.006Z,0.88
2022-10-09T13:15:06.899Z,0.80
2022-10-09T13:17:41.819Z,0.70
2022-10-09T13:20:12.355Z,0.80
2022-10-09T13:22:52.823Z,0.80
2022-10-09T13:25:20.390Z,0.80
2022-10-09T13:27:48.117Z,0.88
2022-10-09T13:30:15.719Z,1.05
2022-10-09T13:32:43.112Z,0.90
2022-10-09T13:35:10.554Z,0.90
2022-10-09T13:37:38.107Z,0.60
2022-10-09T13:40:14.779Z,1.00
2022-10-09T13:42:43.034Z,0.90
2022-10-09T13:45:11.024Z,0.90
2022-10-09T13:47:40.837Z,1.10
2022-10-09T13:50:08.539Z,0.93
2022-10-09T13:52:35.961Z,0.90
2022-10-09T13:55:03.420Z,0.82
2022-10-09T13:57:35.345Z,0.93
2022-10-09T14:00:06.194Z,0.90
2022-10-09T14:05:25.713Z,0.73
2022-10-09T14:07:53.308Z,0.77
2022-10-09T14:10:23.869Z,0.90
2022-10-09T14:12:52.108Z,0.70
2022-10-09T14:15:24.569Z,0.80
2022-10-09T14:17:52.154Z,0.65
2022-10-09T14:20:20.063Z,1.00
2022-10-09T14:22:53.001Z,0.80
2022-10-09T14:25:20.414Z,0.80
2022-10-09T14:27:47.780Z,0.93
2022-10-09T14:30:15.120Z,0.73
2022-10-09T14:32:53.173Z,0.90
2022-10-09T14:35:21.608Z,0.82
2022-10-09T14:37:49.347Z,0.80
2022-10-09T14:40:17.129Z,0.60
2022-10-09T14:42:44.579Z,0.80
2022-10-09T14:45:38.570Z,1.05
2022-10-09T14:48:08.875Z,0.85
2022-10-09T14:50:36.664Z,1.17
2022-10-09T14:53:04.251Z,0.70
2022-10-09T14:55:34.067Z,0.80
2022-10-09T14:58:01.741Z,0.80
2022-10-09T15:00:29.182Z,0.90
2022-10-09T15:02:59.028Z,0.80
2022-10-09T15:05:27.440Z,0.80
2022-10-09T15:07:54.861Z,0.80
2022-10-09T15:10:22.390Z,0.75
2022-10-09T15:12:52.371Z,0.93
2022-10-09T15:15:19.940Z,1.00
2022-10-09T15:17:47.815Z,0.63
2022-10-09T15:20:15.505Z,0.70
2022-10-09T15:22:43.037Z,1.00
2022-10-09T15:25:10.621Z,0.80
2022-10-09T15:27:38.543Z,0.90
2022-10-09T15:30:06.616Z,0.90
2022-10-09T15:32:34.205Z,0.75
2022-10-09T15:35:02.295Z,0.80
2022-10-09T15:37:29.737Z,0.90
2022-10-09T15:39:57.172Z,0.77
2022-10-09T15:42:24.653Z,0.80
2022-10-09T15:44:54.822Z,0.90
2022-10-09T15:47:39.225Z,0.93
2022-10-09T15:50:10.300Z,1.10
2022-10-09T15:52:38.026Z,0.80
2022-10-09T15:55:07.204Z,0.85
2022-10-09T15:57:34.742Z,0.80
2022-10-09T16:00:02.152Z,0.77
2022-10-09T16:02:29.747Z,0.98
2022-10-09T16:04:57.152Z,1.02
2022-10-09T16:07:27.228Z,1.20
2022-10-09T16:09:57.496Z,0.73
2022-10-09T16:12:25.128Z,0.80
2022-10-09T16:14:52.841Z,0.77
2022-10-09T16:17:20.268Z,0.95
2022-10-09T16:19:47.860Z,1.42
2022-10-09T16:22:15.301Z,1.20
2022-10-09T16:24:42.654Z,1.67
2022-10-09T16:27:10.227Z,1.15
2022-10-09T16:32:21.513Z,0.85
2022-10-09T16:35:00.753Z,0.90
2022-10-09T16:37:30.720Z,1.00
2022-10-09T16:40:01.497Z,1.05
2022-10-09T16:42:30.658Z,0.90
2022-10-09T16:44:58.791Z,0.85
2022-10-09T16:47:34.865Z,0.85
2022-10-09T16:50:03.913Z,0.80
2022-10-09T16:52:33.948Z,0.77
2022-10-09T16:55:01.359Z,1.10
2022-10-09T16:57:28.861Z,0.80
2022-10-09T16:59:56.304Z,1.02
2022-10-09T17:02:26.145Z,0.90
2022-10-09T17:04:53.696Z,0.98
2022-10-09T17:07:21.280Z,0.73
2022-10-09T17:09:48.876Z,0.80
2022-10-09T17:12:16.847Z,0.98
2022-10-09T17:14:54.654Z,0.70
2022-10-09T17:17:22.043Z,0.80
2022-10-09T17:19:52.434Z,1.10
2022-10-09T17:22:42.690Z,1.00
2022-10-09T17:25:11.710Z,1.10
2022-10-09T17:27:44.813Z,0.82
2022-10-09T17:30:15.762Z,1.10
2022-10-09T17:32:46.650Z,1.00
2022-10-09T17:35:16.213Z,1.00
2022-10-09T17:37:46.312Z,1.10
2022-10-09T17:40:13.870Z,1.25
2022-10-09T17:42:41.367Z,1.20
2022-10-09T17:45:12.984Z,1.38
2022-10-09T17:50:10.640Z,1.20
2022-10-09T17:52:40.164Z,0.90
2022-10-09T17:55:08.665Z,1.30
2022-10-09T17:57:37.352Z,1.17
2022-10-09T18:00:05.303Z,1.23
2022-10-09T18:02:32.840Z,1.80
2022-10-09T18:05:02.682Z,1.40
2022-10-09T18:07:31.077Z,1.42
2022-10-09T18:10:01.768Z,1.10
2022-10-09T18:12:29.584Z,1.25
2022-10-09T18:15:01.287Z,1.20
2022-10-09T18:17:34.322Z,1.30
2022-10-09T18:20:03.906Z,1.38
2022-10-09T18:22:36.485Z,1.60
2022-10-09T18:25:05.172Z,1.20
2022-10-09T18:27:33.078Z,1.50
2022-10-09T18:30:00.416Z,1.38
2022-10-09T18:32:28.050Z,1.15
2022-10-09T18:34:55.443Z,1.45
2022-10-09T18:37:23.884Z,1.30
2022-10-09T18:39:53.355Z,1.35
2022-10-09T18:42:20.663Z,1.38
2022-10-09T18:44:50.908Z,1.33
2022-10-09T18:47:22.555Z,2.72
2022-10-09T18:49:54.242Z,1.85
2022-10-09T18:52:24.988Z,1.90
2022-10-09T18:54:56.458Z,1.42
2022-10-09T18:57:26.532Z,1.63
2022-10-09T18:59:55.552Z,1.50
2022-10-09T19:02:26.537Z,1.73
2022-10-09T19:04:54.781Z,1.70
2022-10-09T19:07:22.577Z,1.80
2022-10-09T19:09:54.892Z,1.58
2022-10-09T19:12:27.105Z,1.45
2022-10-09T19:14:56.856Z,1.65
2022-10-09T19:17:24.403Z,1.85
2022-10-09T19:19:54.218Z,1.50
2022-10-09T19:22:24.025Z,1.67
2022-10-09T19:24:51.559Z,1.70
2022-10-09T19:27:18.939Z,1.70
2022-10-09T19:29:46.531Z,2.03
2022-10-09T19:32:18.215Z,2.30
2022-10-09T19:34:48.107Z,4.00
2022-10-09T19:37:15.705Z,4.07
2022-10-09T19:39:51.910Z,2.30
2022-10-09T19:42:20.145Z,2.38
2022-10-09T19:44:47.941Z,2.28
2022-10-09T19:47:16.346Z,1.92
2022-10-09T19:49:44.059Z,2.05
2022-10-09T19:52:11.493Z,2.03
2022-10-09T19:54:40.455Z,2.50
2022-10-09T19:57:08.236Z,1.73
2022-10-09T19:59:35.933Z,1.92
2022-10-09T20:02:06.651Z,2.10
2022-10-09T20:04:35.401Z,1.55
2022-10-09T20:07:12.954Z,2.10
2022-10-09T20:09:41.122Z,1.90
2022-10-09T20:12:09.962Z,1.67
2022-10-09T20:14:37.860Z,1.85
2022-10-09T20:17:06.978Z,1.88
2022-10-09T20:19:34.614Z,1.70
2022-10-09T20:22:02.400Z,2.10
2022-10-09T20:24:32.654Z,2.00
2022-10-09T20:27:02.717Z,1.90
2022-10-09T20:29:33.712Z,1.90
2022-10-09T20:32:01.574Z,2.15
2022-10-09T20:34:30.930Z,2.00
2022-10-09T20:36:58.611Z,2.00
2022-10-09T20:39:26.093Z,2.10
2022-10-09T20:41:53.576Z,1.98
2022-10-09T20:44:21.078Z,2.15
2022-10-09T20:46:49.528Z,1.90
2022-10-09T20:49:17.066Z,2.08
2022-10-09T20:51:47.359Z,1.73
2022-10-09T20:54:27.212Z,1.80
2022-10-09T20:56:57.732Z,2.28
2022-10-09T20:59:30.516Z,2.15
2022-10-09T21:01:57.993Z,1.95
2022-10-09T21:04:25.670Z,2.00
2022-10-09T21:06:53.293Z,1.80
2022-10-09T21:09:20.837Z,2.00
2022-10-09T21:11:48.432Z,2.30
2022-10-09T21:14:19.641Z,2.30
2022-10-09T21:16:49.442Z,1.92
2022-10-09T21:19:20.698Z,1.83
2022-10-09T21:21:51.246Z,2.28
2022-10-09T21:24:18.999Z,2.05
2022-10-09T21:26:47.579Z,1.98
2022-10-09T21:29:17.911Z,1.95
2022-10-09T21:31:45.491Z,1.80
2022-10-09T21:34:13.215Z,2.13
2022-10-09T21:37:15.957Z,1.80
2022-10-09T21:39:33.837Z,1.88
2022-10-09T21:42:04.047Z,1.85
2022-10-09T21:44:31.415Z,2.05
2022-10-09T21:46:58.789Z,1.70
2022-10-09T21:49:28.473Z,2.40
2022-10-09T21:51:56.370Z,1.85
2022-10-09T21:54:24.038Z,1.60
2022-10-09T21:56:53.923Z,1.80
2022-10-09T21:59:21.586Z,2.00
2022-10-09T22:01:49.094Z,1.58
2022-10-09T22:04:16.634Z,1.80
2022-10-09T22:06:44.057Z,1.80
2022-10-09T22:09:12.239Z,1.73
2022-10-09T22:11:39.748Z,1.63
2022-10-09T22:14:07.754Z,1.50
2022-10-09T22:16:35.353Z,1.70
2022-10-09T22:19:03.199Z,1.48
2022-10-09T22:21:30.678Z,1.70
2022-10-09T22:24:01.078Z,1.52
2022-10-09T22:26:28.727Z,1.55
2022-10-09T22:28:56.153Z,2.17
2022-10-09T22:31:26.338Z,1.60
2022-10-09T22:34:00.442Z,1.50
2022-10-09T22:36:35.129Z,1.50
2022-10-09T22:39:05.313Z,1.15
2022-10-09T22:41:34.390Z,1.60
2022-10-09T22:44:02.942Z,1.40
2022-10-09T22:46:39.665Z,1.80
2022-10-09T22:49:15.803Z,1.50
2022-10-09T22:51:43.770Z,1.70
2022-10-09T22:54:12.621Z,1.48
2022-10-09T22:56:45.026Z,1.42
2022-10-09T22:59:16.270Z,1.50
2022-10-09T23:01:55.754Z,1.40
2022-10-09T23:04:24.411Z,1.00
2022-10-09T23:06:57.260Z,1.05
2022-10-09T23:09:31.487Z,1.25
2022-10-09T23:12:02.442Z,1.38
2022-10-09T23:14:30.093Z,1.33
2022-10-09T23:16:57.651Z,1.40
2022-10-09T23:19:25.225Z,1.20
2022-10-09T23:21:52.713Z,1.30
2022-10-09T23:24:20.235Z,1.10
2022-10-09T23:26:51.086Z,1.75
2022-10-09T23:29:24.013Z,1.00
2022-10-09T23:31:55.765Z,1.15
2022-10-09T23:34:23.317Z,1.00
2022-10-09T23:36:51.960Z,0.95
2022-10-09T23:39:19.382Z,1.30
2022-10-09T23:41:46.804Z,1.20
2022-10-09T23:44:15.962Z,1.20
2022-10-09T23:46:45.171Z,1.30
2022-10-09T23:49:12.746Z,1.17
2022-10-09T23:51:40.187Z,1.40
2022-10-09T23:54:07.748Z,1.10
2022-10-09T23:56:36.527Z,1.23
2022-10-09T23:59:08.562Z,1.58
